Time;durP1;ratioP1;P1;durP2;ratioP2;P2;SDS_P1;SDS_P2;PMS_P1;PMS_P2;Temp;Humidity;BMP_temperature;BMP_pressure;BME280_temperature;BME280_humidity;BME280_pressure;Samples;Min_cycle;Max_cycle;Signal;HPM_P1;HPM_P2
2023/01/16 00:00:47;;;;;;;1.90;1.00;;;;;;;3.11;100.00;99462.13;5049452;28;20489;-65
2023/01/16 00:03:12;;;;;;;1.87;0.80;;;;;;;3.07;100.00;99455.16;5049841;28;20460;-64
2023/01/16 00:05:37;;;;;;;2.90;0.83;;;;;;;3.02;100.00;99451.53;5051043;28;20024;-65
2023/01/16 00:08:03;;;;;;;2.93;0.93;;;;;;;3.00;100.00;99446.31;5048691;28;20382;-65
2023/01/16 00:10:28;;;;;;;2.20;0.90;;;;;;;2.96;100.00;99446.16;5048636;28;20478;-64
2023/01/16 00:12:53;;;;;;;1.60;0.90;;;;;;;2.94;100.00;99440.97;5048749;28;20028;-65
2023/01/16 00:15:19;;;;;;;3.80;0.90;;;;;;;2.91;100.00;99445.97;5047332;28;20469;-65
2023/01/16 00:17:44;;;;;;;5.13;1.80;;;;;;;2.88;100.00;99441.59;5049036;28;20036;-64
2023/01/16 00:20:10;;;;;;;2.70;1.00;;;;;;;2.87;100.00;99434.75;5053371;28;20667;-65
2023/01/16 00:22:35;;;;;;;4.20;0.93;;;;;;;2.85;100.00;99428.69;5048564;28;20028;-64
2023/01/16 00:25:00;;;;;;;3.13;1.10;;;;;;;2.82;100.00;99431.13;5049727;28;20047;-64
2023/01/16 00:27:25;;;;;;;5.57;1.40;;;;;;;2.80;100.00;99419.06;5048448;28;20025;-65
2023/01/16 00:29:51;;;;;;;3.50;1.13;;;;;;;2.79;100.00;99428.41;5048056;28;20028;-64
2023/01/16 00:32:16;;;;;;;6.30;1.10;;;;;;;2.77;100.00;99419.78;5048030;28;20028;-65
2023/01/16 00:34:41;;;;;;;4.43;1.20;;;;;;;2.74;100.00;99428.22;5051162;28;20037;-65
2023/01/16 00:37:07;;;;;;;5.17;1.40;;;;;;;2.74;100.00;99423.13;5051015;28;20017;-65
2023/01/16 00:39:32;;;;;;;4.43;1.33;;;;;;;2.72;100.00;99421.28;5048103;28;20055;-65
2023/01/16 00:41:58;;;;;;;5.17;1.30;;;;;;;2.73;100.00;99408.59;5050075;28;20484;-65
2023/01/16 00:44:23;;;;;;;4.63;0.93;;;;;;;2.74;100.00;99415.44;5053222;28;20245;-64
2023/01/16 00:46:49;;;;;;;3.77;1.20;;;;;;;2.74;100.00;99415.44;5047054;28;20496;-65
2023/01/16 00:49:14;;;;;;;3.33;1.13;;;;;;;2.76;100.00;99418.06;5050914;28;20036;-64
2023/01/16 00:51:39;;;;;;;4.80;1.13;;;;;;;2.75;100.00;99403.53;5050509;28;20140;-64
2023/01/16 00:54:04;;;;;;;4.27;1.70;;;;;;;2.75;100.00;99400.97;5059690;28;20024;-65
2023/01/16 00:56:30;;;;;;;3.23;1.17;;;;;;;2.73;100.00;99402.59;5047369;28;20025;-64
2023/01/16 00:58:55;;;;;;;5.90;1.93;;;;;;;2.73;100.00;99392.34;5047231;28;20013;-65
2023/01/16 01:01:20;;;;;;;7.93;1.73;;;;;;;2.72;100.00;99385.47;5046865;28;20460;-65
2023/01/16 01:03:46;;;;;;;5.90;1.67;;;;;;;2.71;100.00;99379.50;5048003;28;20028;-65
2023/01/16 01:06:11;;;;;;;2.73;0.97;;;;;;;2.69;100.00;99380.25;5053215;28;20012;-65
2023/01/16 01:08:37;;;;;;;2.70;1.27;;;;;;;2.67;100.00;99369.94;5050410;28;20056;-65
2023/01/16 01:11:07;;;;;;;3.17;1.10;;;;;;;2.68;100.00;99371.69;5047449;28;20020;-64
2023/01/16 01:13:32;;;;;;;4.33;1.27;;;;;;;2.67;100.00;99371.63;5047865;28;20029;-64
2023/01/16 01:15:57;;;;;;;4.23;1.03;;;;;;;2.65;100.00;99363.91;5048281;28;20052;-64
2023/01/16 01:18:22;;;;;;;3.40;0.90;;;;;;;2.63;100.00;99361.28;5058991;28;20028;-65
2023/01/16 01:20:48;;;;;;;4.17;1.00;;;;;;;2.61;100.00;99352.66;5051610;28;20029;-64
2023/01/16 01:23:13;;;;;;;6.10;0.80;;;;;;;2.60;100.00;99350.94;5047476;28;20025;-64
2023/01/16 01:25:38;;;;;;;3.13;1.20;;;;;;;2.59;100.00;99351.72;5059296;28;20102;-64
2023/01/16 01:28:04;;;;;;;5.63;1.97;;;;;;;2.55;100.00;99339.66;5057813;28;20274;-64
2023/01/16 01:30:29;;;;;;;4.00;0.77;;;;;;;2.52;100.00;99334.38;5048705;28;20366;-65
2023/01/16 01:32:54;;;;;;;7.93;1.17;;;;;;;2.51;100.00;99330.09;5045761;28;20021;-65
2023/01/16 01:35:20;;;;;;;5.67;0.90;;;;;;;2.51;100.00;99330.97;5051971;28;20032;-64
2023/01/16 01:37:45;;;;;;;4.67;0.90;;;;;;;2.47;100.00;99323.09;5046728;28;20043;-64
2023/01/16 01:40:11;;;;;;;8.50;1.27;;;;;;;2.45;100.00;99310.25;5047132;28;20103;-64
2023/01/16 01:42:51;;;;;;;5.80;1.80;;;;;;;2.42;100.00;99305.03;5050427;28;20033;-65
2023/01/16 01:45:21;;;;;;;3.77;1.43;;;;;;;2.42;100.00;99304.13;5060049;28;20480;-64
2023/01/16 01:47:54;;;;;;;5.00;0.90;;;;;;;2.39;100.00;99298.09;5047302;28;20025;-65
2023/01/16 01:50:38;;;;;;;3.87;0.80;;;;;;;2.38;100.00;99283.56;5056297;28;20107;-64
2023/01/16 01:53:12;;;;;;;5.00;1.47;;;;;;;2.38;100.00;99283.56;5046052;28;20108;-64
2023/01/16 01:55:39;;;;;;;3.87;1.00;;;;;;;2.36;100.00;99274.94;5047582;28;20029;-65
2023/01/16 01:58:04;;;;;;;5.77;1.20;;;;;;;2.33;100.00;99269.72;5051180;28;20453;-64
2023/01/16 02:00:30;;;;;;;2.97;1.00;;;;;;;2.32;100.00;99265.41;5053099;28;20112;-64
2023/01/16 02:03:12;;;;;;;4.43;1.50;;;;;;;2.27;100.00;99262.69;5052835;28;20118;-64
2023/01/16 02:05:44;;;;;;;4.13;1.37;;;;;;;2.25;100.00;99255.75;5058321;28;20047;-65
2023/01/16 02:08:14;;;;;;;5.93;1.77;;;;;;;2.22;100.00;99246.28;5061749;28;20036;-64
2023/01/16 02:10:44;;;;;;;4.97;1.57;;;;;;;2.18;100.00;99235.88;5053695;28;20033;-65
2023/01/16 02:13:10;;;;;;;6.57;1.47;;;;;;;2.14;100.00;99240.84;5053380;28;20389;-65
2023/01/16 02:19:14;;;;;;;6.53;1.57;;;;;;;2.19;100.00;99237.63;5053086;28;20044;-64
2023/01/16 02:21:25;;;;;;;4.80;1.20;;;;;;;2.18;100.00;99223.09;5052775;28;20564;-64
2023/01/16 02:24:13;;;;;;;6.73;1.43;;;;;;;2.16;100.00;99223.91;5053324;28;20084;-64
2023/01/16 02:26:57;;;;;;;3.70;1.40;;;;;;;2.20;100.00;99216.34;5054437;28;20605;-64
2023/01/16 02:29:40;;;;;;;1.87;1.40;;;;;;;2.17;100.00;99212.00;5053137;28;20440;-65
2023/01/16 02:32:27;;;;;;;4.17;0.90;;;;;;;2.19;100.00;99204.38;5053360;28;20025;-64
2023/01/16 02:35:04;;;;;;;5.47;1.50;;;;;;;2.18;100.00;99195.84;5058442;28;20032;-64
2023/01/16 02:37:47;;;;;;;4.07;1.20;;;;;;;2.14;100.00;99182.06;5061964;28;20108;-64
2023/01/16 02:40:25;;;;;;;3.67;1.30;;;;;;;2.12;100.00;99168.34;5054557;28;20036;-64
2023/01/16 02:43:01;;;;;;;4.40;1.27;;;;;;;2.12;100.00;99164.94;5057440;28;20120;-64
2023/01/16 02:46:06;;;;;;;3.43;1.30;;;;;;;2.13;100.00;99148.78;5053215;28;20025;-65
2023/01/16 02:48:56;;;;;;;4.93;1.20;;;;;;;2.11;100.00;99146.16;5054176;28;20036;-64
2023/01/16 02:51:34;;;;;;;7.53;1.43;;;;;;;2.09;100.00;99137.56;5065395;28;20052;-65
2023/01/16 02:54:16;;;;;;;2.77;1.07;;;;;;;2.09;100.00;99118.78;5052852;28;20287;-64
2023/01/16 02:56:51;;;;;;;6.03;1.10;;;;;;;2.07;100.00;99110.22;5053953;28;20489;-64
2023/01/16 02:59:17;;;;;;;2.40;1.00;;;;;;;2.07;100.00;99100.00;5053695;28;20476;-64
2023/01/16 03:01:45;;;;;;;5.13;1.17;;;;;;;2.06;100.00;99100.78;5052038;28;20021;-65
2023/01/16 03:04:35;;;;;;;2.27;0.93;;;;;;;2.08;100.00;99100.06;5052708;28;20070;-64
2023/01/16 03:07:20;;;;;;;3.83;1.00;;;;;;;2.06;100.00;99095.69;5059588;28;20035;-64
2023/01/16 03:10:01;;;;;;;3.83;0.80;;;;;;;2.03;100.00;99086.22;5050168;28;20507;-64
2023/01/16 03:12:32;;;;;;;6.07;1.00;;;;;;;2.03;100.00;99070.91;5049797;28;20473;-64
2023/01/16 03:15:00;;;;;;;4.07;0.70;;;;;;;2.02;100.00;99064.03;5053591;28;20120;-64
2023/01/16 03:17:50;;;;;;;3.13;0.77;;;;;;;2.00;100.00;99068.19;5049801;28;20165;-64
2023/01/16 03:20:30;;;;;;;3.70;0.63;;;;;;;1.99;100.00;99046.03;5059976;28;20111;-65
2023/01/16 03:23:41;;;;;;;4.60;0.93;;;;;;;1.96;100.00;99043.38;5058415;28;20078;-65
2023/01/16 03:26:18;;;;;;;1.93;0.87;;;;;;;1.92;100.00;99043.22;5048475;28;20119;-64
2023/01/16 03:28:58;;;;;;;3.23;0.87;;;;;;;1.90;100.00;99024.44;5048788;28;20027;-64
2023/01/16 03:31:39;;;;;;;5.30;0.90;;;;;;;1.89;100.00;99022.69;5048939;28;20393;-64
2023/01/16 03:34:13;;;;;;;2.28;0.80;;;;;;;1.87;100.00;99016.63;5050482;28;20025;-65
2023/01/16 03:36:47;;;;;;;3.10;0.80;;;;;;;1.84;100.00;99003.75;5050160;28;20537;-64
2023/01/16 03:39:16;;;;;;;3.20;0.70;;;;;;;1.82;100.00;99000.25;5050202;28;20078;-64
2023/01/16 03:41:45;;;;;;;5.33;0.90;;;;;;;1.81;100.00;98993.44;5050417;28;20295;-64
2023/01/16 03:44:24;;;;;;;3.10;0.90;;;;;;;1.79;100.00;98990.81;5050613;28;20037;-64
2023/01/16 03:46:50;;;;;;;2.03;0.70;;;;;;;1.78;100.00;98978.00;5048772;28;20400;-64
2023/01/16 03:49:20;;;;;;;3.00;1.00;;;;;;;1.76;100.00;98969.41;5049032;28;20051;-64
2023/01/16 03:51:51;;;;;;;5.27;1.10;;;;;;;1.75;100.00;98968.53;5048608;28;20049;-65
2023/01/16 03:54:47;;;;;;;4.28;1.20;;;;;;;1.74;100.00;98951.47;5048608;28;20450;-65
2023/01/16 03:57:22;;;;;;;2.53;0.90;;;;;;;1.73;100.00;98936.06;5047746;28;20465;-65
2023/01/16 03:59:50;;;;;;;4.37;1.33;;;;;;;1.72;100.00;98929.22;5048539;28;20021;-64
2023/01/16 04:02:26;;;;;;;5.97;1.70;;;;;;;1.69;100.00;98917.22;5048674;28;20546;-65
2023/01/16 04:04:59;;;;;;;2.40;0.80;;;;;;;1.68;100.00;98915.47;5054230;28;20028;-64
2023/01/16 04:07:34;;;;;;;3.73;1.10;;;;;;;1.65;100.00;98906.03;5048617;28;20016;-64
2023/01/16 04:10:04;;;;;;;7.93;1.10;;;;;;;1.65;100.00;98893.25;5048221;28;20195;-64
2023/01/16 04:12:37;;;;;;;3.80;1.23;;;;;;;1.65;100.00;98888.16;5048301;28;20021;-64
2023/01/16 04:15:06;;;;;;;1.80;0.70;;;;;;;1.64;100.00;98877.84;5048336;28;20413;-64
2023/01/16 04:17:32;;;;;;;7.53;1.33;;;;;;;1.64;100.00;98873.63;5047787;28;20132;-64
2023/01/16 04:19:58;;;;;;;5.30;1.00;;;;;;;1.65;100.00;98865.16;5055583;28;20376;-64
2023/01/16 04:22:26;;;;;;;2.27;0.90;;;;;;;1.65;100.00;98862.59;5056919;28;20029;-64
2023/01/16 04:24:54;;;;;;;3.27;1.27;;;;;;;1.65;100.00;98854.06;5048264;28;20082;-65
2023/01/16 04:27:20;;;;;;;4.80;0.97;;;;;;;1.65;100.00;98847.28;5047888;28;20028;-64
2023/01/16 04:29:46;;;;;;;6.13;1.50;;;;;;;1.65;100.00;98834.50;5050636;28;20060;-64
2023/01/16 04:32:12;;;;;;;4.10;1.40;;;;;;;1.66;100.00;98814.94;5048075;28;20848;-64
2023/01/16 04:34:37;;;;;;;4.63;1.70;;;;;;;1.68;100.00;98811.63;5050308;28;20051;-64
2023/01/16 04:37:02;;;;;;;3.97;1.40;;;;;;;1.70;100.00;98806.56;5056075;28;20032;-64
2023/01/16 04:39:28;;;;;;;3.23;1.00;;;;;;;1.72;100.00;98799.84;5047696;28;20025;-64
2023/01/16 04:41:53;;;;;;;5.40;1.40;;;;;;;1.73;100.00;98791.34;5053053;28;20020;-64
2023/01/16 04:44:18;;;;;;;6.30;1.37;;;;;;;1.76;100.00;98778.69;5053513;28;20111;-65
2023/01/16 04:46:44;;;;;;;4.80;1.40;;;;;;;1.78;100.00;98773.66;5056297;28;20024;-65
2023/01/16 04:49:09;;;;;;;2.67;1.23;;;;;;;1.81;100.00;98758.41;5050799;28;20028;-65
2023/01/16 04:51:36;;;;;;;4.47;1.20;;;;;;;1.85;100.00;98746.63;5049357;28;20045;-64
2023/01/16 04:54:03;;;;;;;4.57;1.43;;;;;;;1.87;100.00;98743.28;5056931;28;20021;-65
2023/01/16 04:56:29;;;;;;;5.80;1.43;;;;;;;1.89;100.00;98728.88;5047061;28;20269;-64
2023/01/16 04:58:54;;;;;;;5.07;1.23;;;;;;;1.91;100.00;98714.47;5053164;28;20029;-64
2023/01/16 05:01:19;;;;;;;2.53;1.00;;;;;;;1.97;100.00;98715.50;5047426;28;20024;-64
2023/01/16 05:03:45;;;;;;;3.93;1.37;;;;;;;2.00;100.00;98705.38;5047991;28;20405;-64
2023/01/16 05:06:10;;;;;;;6.17;1.20;;;;;;;2.04;100.00;98691.88;5049569;28;20053;-64
2023/01/16 05:08:35;;;;;;;4.37;1.20;;;;;;;2.07;100.00;98684.31;5047518;28;20070;-64
2023/01/16 05:11:01;;;;;;;3.77;1.53;;;;;;;2.10;100.00;98671.66;5052391;28;20028;-64
2023/01/16 05:13:27;;;;;;;6.20;1.13;;;;;;;2.14;100.00;98670.06;5047132;28;20024;-64
2023/01/16 05:15:53;;;;;;;10.60;1.40;;;;;;;2.16;100.00;98659.03;5051742;28;20465;-64
2023/01/16 05:18:18;;;;;;;7.30;1.40;;;;;;;2.21;100.00;98661.75;5047591;28;20024;-64
2023/01/16 05:20:43;;;;;;;2.10;1.10;;;;;;;2.24;100.00;98646.50;5049835;28;20219;-64
2023/01/16 05:23:11;;;;;;;2.57;1.07;;;;;;;2.27;100.00;98643.16;5055652;28;20055;-64
2023/01/16 05:25:37;;;;;;;5.57;1.30;;;;;;;2.30;100.00;98634.72;5047659;28;20075;-64
2023/01/16 05:28:03;;;;;;;2.90;1.00;;;;;;;2.33;100.00;98630.59;5046360;28;20112;-65
2023/01/16 05:30:28;;;;;;;8.27;1.50;;;;;;;2.35;100.00;98618.72;5049919;28;20639;-64
2023/01/16 05:32:54;;;;;;;5.33;1.50;;;;;;;2.37;100.00;98609.41;5052709;28;20044;-64
2023/01/16 05:35:19;;;;;;;4.47;1.40;;;;;;;2.39;100.00;98600.06;5049964;28;20094;-64
2023/01/16 05:37:45;;;;;;;4.40;1.30;;;;;;;2.42;100.00;98580.53;5049547;28;20154;-64
2023/01/16 05:40:11;;;;;;;3.53;1.20;;;;;;;2.44;100.00;98571.22;5055052;28;20033;-64
2023/01/16 05:42:36;;;;;;;7.00;1.30;;;;;;;2.45;100.00;98563.59;5049532;28;20086;-64
2023/01/16 05:45:02;;;;;;;4.47;1.60;;;;;;;2.49;100.00;98554.31;5046871;28;20036;-64
2023/01/16 05:47:27;;;;;;;3.50;1.10;;;;;;;2.49;100.00;98544.97;5049543;28;20444;-64
2023/01/16 05:49:53;;;;;;;3.57;0.87;;;;;;;2.52;100.00;98536.50;5048264;28;20044;-64
2023/01/16 05:52:18;;;;;;;5.57;1.10;;;;;;;2.53;100.00;98530.56;5055584;28;20063;-64
2023/01/16 05:54:43;;;;;;;1.50;0.87;;;;;;;2.54;100.00;98526.34;5054236;28;20109;-64
2023/01/16 05:57:09;;;;;;;2.80;0.90;;;;;;;2.57;100.00;98518.75;5050026;28;20024;-65
2023/01/16 05:59:34;;;;;;;4.67;0.97;;;;;;;2.60;100.00;98516.25;5047683;28;20028;-64
2023/01/16 06:01:59;;;;;;;4.70;0.90;;;;;;;2.62;100.00;98505.25;5048860;28;20344;-65
2023/01/16 06:04:25;;;;;;;4.07;1.63;;;;;;;2.65;100.00;98504.44;5047558;28;20029;-64
2023/01/16 06:06:50;;;;;;;4.87;1.30;;;;;;;2.65;100.00;98496.78;5054841;28;20052;-64
2023/01/16 06:09:15;;;;;;;4.00;1.10;;;;;;;2.70;100.00;98502.03;5049889;28;20557;-64
2023/01/16 06:11:41;;;;;;;5.73;1.07;;;;;;;2.71;100.00;98489.28;5046582;28;20427;-64
2023/01/16 06:14:06;;;;;;;4.30;0.83;;;;;;;2.73;100.00;98486.75;5046698;28;20082;-65
2023/01/16 06:16:32;;;;;;;1.57;0.83;;;;;;;2.73;100.00;98486.75;5050697;28;20033;-65
2023/01/16 06:18:58;;;;;;;3.60;0.80;;;;;;;2.75;100.00;98480.84;5050672;28;20043;-64
2023/01/16 06:21:23;;;;;;;3.00;0.97;;;;;;;2.75;100.00;98474.88;5047196;28;20533;-64
2023/01/16 06:23:49;;;;;;;3.83;0.80;;;;;;;2.74;100.00;98466.34;5046531;28;20025;-64
2023/01/16 06:26:14;;;;;;;2.70;1.00;;;;;;;2.75;100.00;98456.97;5046797;28;20049;-64
2023/01/16 06:28:40;;;;;;;4.07;0.93;;;;;;;2.74;100.00;98458.66;5054487;28;20617;-64
2023/01/16 06:31:06;;;;;;;3.17;1.60;;;;;;;2.78;100.00;98453.63;5047267;28;20115;-64
2023/01/16 06:33:31;;;;;;;6.53;1.00;;;;;;;2.78;100.00;98449.38;5047106;28;20461;-64
2023/01/16 06:35:57;;;;;;;2.27;0.80;;;;;;;2.75;100.00;98428.84;5050415;28;20036;-64
2023/01/16 06:38:23;;;;;;;3.90;0.70;;;;;;;2.74;100.00;98429.66;5052666;28;20017;-64
2023/01/16 06:40:48;;;;;;;3.23;0.90;;;;;;;2.73;100.00;98427.94;5046158;28;20036;-64
2023/01/16 06:43:16;;;;;;;5.70;1.10;;;;;;;2.71;100.00;98407.44;5048467;28;20106;-64
2023/01/16 06:45:41;;;;;;;3.47;0.83;;;;;;;2.67;100.00;98400.50;5051248;28;20027;-64
2023/01/16 06:48:07;;;;;;;3.80;1.10;;;;;;;2.67;100.00;98382.59;5049393;28;20029;-64
2023/01/16 06:50:32;;;;;;;4.07;0.93;;;;;;;2.68;100.00;98378.34;5050917;28;20098;-64
2023/01/16 06:52:57;;;;;;;3.87;0.80;;;;;;;2.67;100.00;98364.69;5049683;28;20384;-64
2023/01/16 06:55:22;;;;;;;4.53;0.80;;;;;;;2.67;100.00;98343.38;5049401;28;20017;-64
2023/01/16 06:57:48;;;;;;;4.30;0.70;;;;;;;2.64;100.00;98334.78;5048961;28;20067;-64
2023/01/16 07:00:14;;;;;;;3.83;1.13;;;;;;;2.64;100.00;98334.78;5049100;28;20021;-64
2023/01/16 07:02:40;;;;;;;4.20;1.00;;;;;;;2.63;100.00;98320.28;5052449;28;20122;-64
2023/01/16 07:05:07;;;;;;;3.30;0.70;;;;;;;2.62;100.00;98315.13;5049794;28;20029;-64
2023/01/16 07:07:33;;;;;;;3.20;0.77;;;;;;;2.61;100.00;98292.94;5052511;28;20048;-64
2023/01/16 07:09:58;;;;;;;1.67;0.60;;;;;;;2.62;100.00;98292.13;5049083;28;20064;-64
2023/01/16 07:12:23;;;;;;;1.90;0.93;;;;;;;2.62;100.00;98279.31;5056685;28;20033;-65
2023/01/16 07:23:01;;;;;;;4.50;0.90;;;;;;;2.64;100.00;98247.81;5055686;28;20114;-64
2023/01/16 07:25:34;;;;;;;4.00;1.03;;;;;;;2.67;100.00;98235.94;5048060;28;20516;-64
2023/01/16 07:28:00;;;;;;;3.30;1.00;;;;;;;2.64;100.00;98222.25;5047197;28;20037;-65
2023/01/16 07:30:25;;;;;;;4.60;1.00;;;;;;;2.66;100.00;98229.13;5047694;28;20071;-64
2023/01/16 07:32:51;;;;;;;4.23;1.00;;;;;;;2.64;100.00;98222.25;5047953;28;20472;-64
2023/01/16 07:35:16;;;;;;;2.93;0.80;;;;;;;2.64;100.00;98217.13;5047178;28;20408;-64
2023/01/16 07:37:42;;;;;;;3.90;0.70;;;;;;;2.62;100.00;98208.59;5047124;28;20033;-64
2023/01/16 07:40:08;;;;;;;1.90;0.77;;;;;;;2.66;100.00;98203.53;5047071;28;20056;-64
2023/01/16 07:42:34;;;;;;;2.20;0.70;;;;;;;2.66;100.00;98190.75;5047110;28;20025;-65
2023/01/16 07:44:59;;;;;;;3.23;1.10;;;;;;;2.63;100.00;98184.75;5047578;28;20473;-65
2023/01/16 07:47:24;;;;;;;3.73;1.00;;;;;;;2.63;100.00;98192.41;5051970;28;20025;-65
2023/01/16 07:49:50;;;;;;;6.93;1.20;;;;;;;2.63;100.00;98169.41;5047536;28;20124;-65
2023/01/16 07:52:17;;;;;;;3.57;0.87;;;;;;;2.62;100.00;98166.81;5052216;28;20085;-65
2023/01/16 07:54:42;;;;;;;2.30;0.90;;;;;;;2.64;100.00;98171.09;5046371;28;20496;-65
2023/01/16 07:57:07;;;;;;;2.57;0.80;;;;;;;2.64;100.00;98163.44;5047316;28;20054;-65
2023/01/16 07:59:33;;;;;;;3.57;1.00;;;;;;;2.63;100.00;98154.06;5046644;28;20537;-65
2023/01/16 08:01:58;;;;;;;3.97;0.87;;;;;;;2.63;100.00;98146.38;5046986;28;20043;-65
2023/01/16 08:04:23;;;;;;;2.43;0.70;;;;;;;2.63;100.00;98138.72;5047508;28;20488;-65
2023/01/16 08:06:48;;;;;;;4.57;0.90;;;;;;;2.63;100.00;98118.25;5049290;28;20033;-66
2023/01/16 08:09:14;;;;;;;3.13;0.90;;;;;;;2.64;100.00;98125.06;5048960;28;20392;-65
2023/01/16 08:11:39;;;;;;;2.13;0.77;;;;;;;2.65;100.00;98108.03;5047814;28;20041;-65
2023/01/16 08:14:06;;;;;;;2.93;0.90;;;;;;;2.65;100.00;98102.94;5051339;28;20515;-65
2023/01/16 08:16:32;;;;;;;3.13;1.20;;;;;;;2.67;100.00;98103.81;5048255;28;20055;-65
2023/01/16 08:18:58;;;;;;;1.23;0.60;;;;;;;2.70;100.00;98097.94;5048740;28;20032;-65
2023/01/16 08:21:23;;;;;;;2.60;0.60;;;;;;;2.71;100.00;98074.94;5048183;28;20036;-65
2023/01/16 08:23:48;;;;;;;2.17;0.90;;;;;;;2.70;100.00;98082.59;5048498;28;20398;-65
2023/01/16 08:26:15;;;;;;;2.13;0.90;;;;;;;2.69;100.00;98073.16;5049317;28;20025;-65
2023/01/16 08:28:41;;;;;;;3.90;0.77;;;;;;;2.71;100.00;98068.94;5049516;28;20527;-65
2023/01/16 08:31:08;;;;;;;3.30;0.93;;;;;;;2.71;100.00;98058.72;5051012;28;20020;-65
2023/01/16 08:33:35;;;;;;;4.70;1.73;;;;;;;2.73;100.00;98050.25;5047416;28;20071;-66
2023/01/16 08:36:02;;;;;;;3.10;0.77;;;;;;;2.75;100.00;98047.72;5050552;28;20032;-65
2023/01/16 08:38:27;;;;;;;4.93;0.90;;;;;;;2.75;100.00;98042.59;5053953;28;20021;-65
2023/01/16 08:40:53;;;;;;;2.83;0.80;;;;;;;2.75;100.00;98034.94;5050773;28;20117;-65
2023/01/16 08:51:30;;;;;;;3.13;1.03;;;;;;;2.85;100.00;98036.81;5049766;28;20102;-64
2023/01/16 08:53:56;;;;;;;2.33;0.60;;;;;;;2.87;100.00;98040.28;5052136;28;20556;-65
2023/01/16 08:56:22;;;;;;;3.07;1.10;;;;;;;2.90;100.00;98030.94;5046582;28;20025;-65
2023/01/16 08:58:48;;;;;;;2.67;0.80;;;;;;;2.92;100.00;98026.69;5047528;28;20048;-65
2023/01/16 09:01:14;;;;;;;2.87;0.90;;;;;;;2.91;100.00;98024.97;5047008;28;20499;-65
2023/01/16 09:03:40;;;;;;;5.37;0.73;;;;;;;2.96;100.00;98031.03;5051577;28;20035;-65
2023/01/16 09:06:06;;;;;;;2.60;0.73;;;;;;;2.95;100.00;98025.03;5047095;28;20029;-65
2023/01/16 09:08:31;;;;;;;1.53;0.60;;;;;;;2.99;100.00;98025.97;5052209;28;20642;-65
2023/01/16 09:13:49;;;;;;;1.70;0.60;;;;;;;3.01;100.00;98016.63;5047083;28;20035;-65
2023/01/16 09:16:20;;;;;;;1.70;0.90;;;;;;;3.01;100.00;98021.72;5047063;28;20033;-65
2023/01/16 09:18:46;;;;;;;;;;;;;;;2.98;100.00;98014.00;5049536;28;20032;-65
2023/01/16 09:21:11;;;;;;;1.90;0.60;;;;;;;2.96;100.00;98008.00;5057575;28;20361;-64
2023/01/16 09:23:37;;;;;;;0.93;0.50;;;;;;;2.93;100.00;98007.97;5048908;28;20021;-65
2023/01/16 09:26:02;;;;;;;0.73;0.43;;;;;;;2.93;100.00;97998.56;5047252;28;20469;-65
2023/01/16 09:28:27;;;;;;;1.03;0.40;;;;;;;2.92;100.00;97996.84;5046767;28;20040;-65
2023/01/16 09:30:53;;;;;;;0.47;0.40;;;;;;;2.92;100.00;98001.09;5047091;28;20090;-65
2023/01/16 09:33:18;;;;;;;2.07;0.60;;;;;;;2.93;100.00;98000.28;5046116;28;20032;-65
2023/01/16 09:35:43;;;;;;;0.57;0.40;;;;;;;2.94;100.00;97992.63;5051845;28;20056;-65
2023/01/16 09:38:08;;;;;;;1.27;0.50;;;;;;;2.94;100.00;98002.00;5047413;28;20025;-65
2023/01/16 09:40:34;;;;;;;0.30;0.30;;;;;;;2.94;100.00;97984.97;5046476;28;20033;-64
2023/01/16 09:43:40;;;;;;;1.40;0.40;;;;;;;2.95;100.00;97983.25;5049320;28;20480;-65
2023/01/16 09:46:19;;;;;;;1.13;0.37;;;;;;;2.98;100.00;97980.75;5048988;28;20170;-65
2023/01/16 09:49:08;;;;;;;0.80;0.30;;;;;;;3.00;100.00;97985.03;5049245;28;20021;-65
2023/01/16 09:58:34;;;;;;;0.20;0.20;;;;;;;2.98;100.00;97988.44;5047101;28;20052;-65
2023/01/16 10:00:06;;;;;;;0.43;0.30;;;;;;;3.00;100.00;97964.56;5046278;28;20043;-65
2023/01/16 10:02:33;;;;;;;0.30;0.30;;;;;;;3.03;100.00;97963.78;5046555;28;20025;-65
2023/01/16 10:05:02;;;;;;;0.40;0.30;;;;;;;3.07;100.00;97965.56;5046993;28;20484;-65
2023/01/16 10:07:52;;;;;;;0.40;0.30;;;;;;;3.07;100.00;97965.56;5046571;28;20021;-65
2023/01/16 10:10:38;;;;;;;1.17;0.40;;;;;;;3.07;100.00;97960.44;5046504;28;20037;-65
2023/01/16 10:13:15;;;;;;;1.73;0.77;;;;;;;3.09;100.00;97952.78;5048404;28;20120;-65
2023/01/16 10:16:18;;;;;;;0.33;0.30;;;;;;;3.11;100.00;97944.28;5049796;28;20184;-65
2023/01/16 10:18:55;;;;;;;0.40;0.30;;;;;;;3.15;100.00;97932.38;5048542;28;20048;-65
2023/01/16 10:21:36;;;;;;;0.70;0.30;;;;;;;3.20;100.00;97924.81;5052864;28;20052;-65
2023/01/16 10:24:14;;;;;;;0.50;0.20;;;;;;;3.27;100.00;97915.50;5049683;28;20423;-65
2023/01/16 10:26:55;;;;;;;0.50;0.20;;;;;;;3.33;100.00;97913.88;5055051;28;20033;-65
2023/01/16 10:29:50;;;;;;;0.77;0.30;;;;;;;3.41;100.00;97913.13;5048996;28;20028;-65
2023/01/16 10:32:32;;;;;;;0.47;0.30;;;;;;;3.48;100.00;97907.25;5047727;28;20229;-65
2023/01/16 10:35:22;;;;;;;0.80;0.30;;;;;;;3.53;100.00;97899.63;5053369;28;20025;-65
2023/01/16 10:37:49;;;;;;;1.33;0.40;;;;;;;3.54;100.00;97894.56;5054169;28;20359;-65
2023/01/16 10:40:24;;;;;;;0.60;0.20;;;;;;;3.57;100.00;97886.91;5052823;28;20037;-65
2023/01/16 10:49:25;;;;;;;0.53;0.30;;;;;;;3.60;100.00;97889.50;5050774;28;20067;-65
2023/01/16 10:51:31;;;;;;;0.93;0.20;;;;;;;3.64;100.00;97869.03;5051728;28;20658;-65
2023/01/16 10:53:58;;;;;;;1.00;0.20;;;;;;;3.66;100.00;97869.94;5052984;28;20108;-65
2023/01/16 10:56:24;;;;;;;0.77;0.20;;;;;;;3.66;100.00;97864.81;5052508;28;20109;-65
2023/01/16 10:58:51;;;;;;;1.03;0.20;;;;;;;3.67;100.00;97844.31;5052506;28;20591;-65
2023/01/16 11:01:19;;;;;;;0.73;0.20;;;;;;;3.70;100.00;97846.94;5050552;28;20396;-65
2023/01/16 11:03:58;;;;;;;0.77;0.50;;;;;;;3.71;100.00;97838.41;5048576;28;20911;-65
2023/01/16 11:06:28;;;;;;;0.60;0.43;;;;;;;3.71;100.00;97840.09;5051553;28;20032;-65
2023/01/16 11:09:04;;;;;;;0.20;0.10;;;;;;;3.73;100.00;97830.75;5049191;28;20021;-65
2023/01/16 11:20:17;;;;;;;0.27;0.20;;;;;;;3.75;100.00;97806.00;5051451;28;20088;-65
2023/01/16 11:22:47;;;;;;;1.07;0.27;;;;;;;3.78;100.00;97793.22;5053165;28;20358;-66
2023/01/16 11:25:18;;;;;;;3.13;0.30;;;;;;;3.79;100.00;97787.28;5050190;28;20389;-66
2023/01/16 11:27:44;;;;;;;0.52;0.25;;;;;;;3.80;100.00;97776.16;5049183;28;20017;-66
2023/01/16 11:30:26;;;;;;;0.50;0.27;;;;;;;3.82;100.00;97779.59;5047845;28;20129;-66
2023/01/16 11:32:55;;;;;;;0.40;0.20;;;;;;;3.84;100.00;97770.25;5048925;28;20067;-66
2023/01/16 11:35:29;;;;;;;0.37;0.30;;;;;;;3.87;100.00;97768.56;5049647;28;20586;-66
2023/01/16 11:37:56;;;;;;;0.70;0.28;;;;;;;3.89;100.00;97764.28;5048932;28;20024;-66
2023/01/16 11:40:25;;;;;;;1.27;0.30;;;;;;;3.90;100.00;97760.91;5054612;28;20496;-66
2023/01/16 11:48:26;;;;;;;0.50;0.20;;;;;;;4.00;100.00;97734.50;5050160;28;20093;-66
2023/01/16 11:50:55;;;;;;;0.37;0.30;;;;;;;4.01;100.00;97731.09;5048202;28;20485;-66
2023/01/16 11:53:21;;;;;;;0.20;0.20;;;;;;;4.03;100.00;97731.97;5048598;28;20052;-66
2023/01/16 11:56:20;;;;;;;0.27;0.20;;;;;;;4.06;100.00;97718.31;5049018;28;20028;-66
2023/01/16 11:59:06;;;;;;;0.20;0.17;;;;;;;4.07;100.00;97720.03;5054811;28;20159;-66
2023/01/16 12:04:26;;;;;;;0.50;0.13;;;;;;;4.11;100.00;97711.53;5048731;28;20043;-65
2023/01/16 12:07:11;;;;;;;0.83;0.20;;;;;;;4.12;100.00;97704.72;5049001;28;20036;-66
2023/01/16 12:10:18;;;;;;;0.20;0.20;;;;;;;4.12;100.00;97699.59;5050352;28;20810;-65
2023/01/16 12:16:06;;;;;;;1.23;0.33;;;;;;;4.11;100.00;97675.66;5016815;28;20479;-66
2023/01/16 12:18:34;;;;;;;1.37;0.30;;;;;;;4.07;100.00;97677.34;5043708;28;20453;-66
2023/01/16 12:21:00;;;;;;;0.50;0.30;;;;;;;4.08;100.00;97675.63;5048396;28;20028;-66
2023/01/16 12:23:32;;;;;;;1.23;0.20;;;;;;;4.08;100.00;97670.50;5046104;28;20025;-66
2023/01/16 12:26:06;;;;;;;0.40;0.30;;;;;;;4.07;100.00;97668.78;5053235;28;20032;-66
2023/01/16 12:28:42;;;;;;;0.60;0.30;;;;;;;4.07;100.00;97667.06;5055843;28;20025;-65
2023/01/16 12:31:50;;;;;;;0.97;0.40;;;;;;;4.11;100.00;97659.41;5047698;28;20021;-65
2023/01/16 12:34:40;;;;;;;1.07;0.40;;;;;;;4.09;100.00;97656.84;5047916;28;20458;-66
2023/01/16 12:37:27;;;;;;;0.60;0.40;;;;;;;4.07;100.00;97649.13;5048621;28;20052;-66
2023/01/16 12:40:11;;;;;;;0.50;0.30;;;;;;;4.07;100.00;97648.28;5049801;28;20401;-66
2023/01/16 12:45:48;;;;;;;0.90;0.30;;;;;;;4.07;100.00;97638.03;5046932;28;20458;-66